Time;durP1;ratioP1;P1;durP2;ratioP2;P2;SDS_P1;SDS_P2;PMS_P1;PMS_P2;Temp;Humidity;BMP_temperature;BMP_pressure;BME280_temperature;BME280_humidity;BME280_pressure;Samples;Min_cycle;Max_cycle;Signal;HPM_P1;HPM_P2
2023/04/29 00:13:32;;;;;;;;;0.50;0.50;;;;;16.15;64.23;-17301.78;5266007;22;45600;-96
2023/04/29 00:16:06;;;;;;;;;1.25;1.25;;;;;16.72;63.97;-17314.66;5017731;28;45735;-90
2023/04/29 00:18:31;;;;;;;;;0.50;0.50;;;;;16.41;64.15;-17307.75;5002829;28;45412;-85
2023/04/29 00:20:57;;;;;;;;;2.00;2.00;;;;;16.75;63.96;-17315.22;4993425;28;47511;-88
2023/04/29 00:23:22;;;;;;;;;1.00;1.00;;;;;16.17;63.83;-17636.38;4995972;28;50297;-85
2023/04/29 00:25:48;;;;;;;;;1.00;1.00;;;;;16.80;64.19;-17650.72;5015632;28;45799;-82
2023/04/29 00:28:26;;;;;;;;;1.00;1.00;;;;;16.96;63.88;-17654.50;5004647;28;45516;-89
2023/04/29 00:30:52;;;;;;;;;1.00;1.00;;;;;17.19;64.13;-17659.66;5010351;28;46172;-84
2023/04/29 00:33:17;;;;;;;;;1.00;1.00;;;;;17.17;64.33;-17659.19;4997257;28;45322;-85
2023/04/29 00:35:43;;;;;;;;;1.75;1.75;;;;;17.12;64.51;-17992.63;5015463;28;45408;-84
2023/04/29 00:38:08;;;;;;;;;1.25;1.25;;;;;16.90;64.56;-17987.47;5005794;28;45414;-85
2023/04/29 00:40:35;;;;;;;;;1.50;1.50;;;;;17.01;64.59;-17989.97;5008539;28;46060;-85
2023/04/29 00:43:00;;;;;;;;;1.50;1.00;;;;;17.08;64.69;-17991.78;4998888;28;45914;-85
2023/04/29 00:45:26;;;;;;;;;2.00;2.00;;;;;17.00;64.43;-17989.75;5010916;28;45633;-84
2023/04/29 00:47:51;;;;;;;;;2.00;2.00;;;;;17.02;64.78;-17990.22;5010827;28;45391;-84
2023/04/29 00:50:19;;;;;;;;;2.67;2.00;;;;;16.43;64.66;-17976.50;5015157;28;51684;-84
2023/04/29 00:52:46;;;;;;;;;1.00;0.00;;;;;16.98;64.81;-17989.25;4997377;28;45418;-84
2023/04/29 00:55:12;;;;;;;;;2.00;2.00;;;;;16.95;65.02;-18323.03;5015804;28;45747;-84
2023/04/29 00:57:38;;;;;;;;;2.00;2.00;;;;;16.93;64.98;-18322.41;5013541;28;45379;-85
2023/04/29 05:01:37;;;;;;;;;5.00;3.67;;;;;15.78;68.99;-19631.53;5496784;23;46446;-85
2023/04/29 05:04:03;;;;;;;;;4.00;3.00;;;;;14.81;68.88;-19606.19;5014806;28;45895;-84
2023/04/29 05:06:28;;;;;;;;;4.33;3.00;;;;;15.15;69.04;-19615.16;5015231;28;45343;-85
2023/04/29 05:08:53;;;;;;;;;3.00;3.00;;;;;15.38;68.77;-19621.22;5015737;28;50472;-84
2023/04/29 05:11:20;;;;;;;;;3.67;3.67;;;;;15.79;68.71;-19631.81;5019013;28;45429;-85
2023/04/29 05:13:46;;;;;;;;;4.00;4.00;;;;;15.29;68.63;-19618.78;5018743;28;46598;-84
2023/04/29 05:16:11;;;;;;;;;2.00;2.00;;;;;15.78;68.85;-19631.66;5018672;28;45444;-84
2023/04/29 05:18:37;;;;;;;;;5.00;3.00;;;;;15.52;68.51;-19624.81;5016651;28;45852;-84
2023/04/29 05:21:02;;;;;;;;;2.33;2.33;;;;;15.60;68.93;-19626.97;5018644;28;45612;-85
2023/04/29 05:23:28;;;;;;;;;4.00;4.00;;;;;15.76;68.69;-19631.00;5018443;28;46348;-84
2023/04/29 05:25:53;;;;;;;;;3.67;3.33;;;;;15.56;68.94;-19625.91;5000990;28;45909;-84
2023/04/29 05:28:18;;;;;;;;;6.00;4.00;;;;;15.67;68.71;-19628.59;5018213;28;45598;-84
2023/04/29 05:30:44;;;;;;;;;5.00;4.00;;;;;15.78;69.12;-19631.53;5019122;28;45340;-85
2023/04/29 05:33:10;;;;;;;;;3.00;3.00;;;;;15.24;68.92;-19617.44;5018587;28;46420;-84
2023/04/29 05:35:36;;;;;;;;;2.67;2.00;;;;;15.77;69.05;-19631.41;5017953;28;45423;-84
2023/04/29 05:38:01;;;;;;;;;6.33;4.00;;;;;15.41;68.80;-19622.00;5018401;28;45367;-84
2023/04/29 05:40:26;;;;;;;;;3.00;3.00;;;;;15.76;69.03;-19631.00;5017226;28;45432;-85
2023/04/29 05:42:52;;;;;;;;;3.67;3.67;;;;;15.41;69.09;-19621.88;5017340;28;46977;-85
2023/04/29 05:45:17;;;;;;;;;3.67;3.67;;;;;15.61;69.31;-19627.09;5017689;28;45424;-84
2023/04/29 05:50:52;;;;;;;;;7.33;4.00;;;;;15.74;69.68;-19630.59;5005331;23;45725;-84
2023/04/29 05:53:18;;;;;;;;;3.33;3.33;;;;;15.44;69.57;-19622.53;4998272;28;46666;-84
2023/04/29 05:55:43;;;;;;;;;4.00;2.67;;;;;15.29;69.35;-19618.66;4997246;28;50283;-84
2023/04/29 05:58:10;;;;;;;;;3.00;2.67;;;;;15.37;69.50;-19620.81;4998674;28;45869;-85
2023/04/29 06:00:35;;;;;;;;;2.00;2.00;;;;;15.67;70.07;-19628.72;4998758;28;45453;-85
2023/04/29 06:03:01;;;;;;;;;4.00;3.00;;;;;15.70;69.48;-19629.38;4998167;28;46530;-84
2023/04/29 06:05:26;;;;;;;;;3.00;2.00;;;;;15.38;69.72;-19621.22;4997008;28;45512;-84
2023/04/29 06:07:51;;;;;;;;;4.33;4.33;;;;;14.57;69.73;-19600.00;4997930;28;45381;-85
2023/04/29 06:10:17;;;;;;;;;7.00;4.00;;;;;15.58;69.78;-19626.31;4998685;28;45560;-84
2023/04/29 06:12:42;;;;;;;;;4.00;2.33;;;;;15.49;70.20;-19623.88;4998231;28;46124;-85
2023/04/29 06:15:08;;;;;;;;;3.00;3.00;;;;;15.65;69.76;-19628.03;4980393;28;45457;-84
2023/04/29 06:17:33;;;;;;;;;3.00;3.00;;;;;15.53;69.70;-19625.09;4996941;28;45460;-84
2023/04/29 06:19:58;;;;;;;;;4.00;3.00;;;;;15.15;70.00;-19615.16;4995473;28;45631;-84
2023/04/29 06:22:24;;;;;;;;;3.00;3.00;;;;;15.44;70.13;-19622.53;4998044;28;46479;-84
2023/04/29 06:24:49;;;;;;;;;8.00;5.00;;;;;15.44;70.29;-19622.69;4996336;28;45571;-85
2023/04/29 06:27:15;;;;;;;;;4.33;3.33;;;;;15.38;70.28;-19621.06;4997888;28;45419;-85
2023/04/29 06:29:41;;;;;;;;;4.67;3.00;;;;;15.58;70.30;-19626.31;4995508;28;45857;-84
2023/04/29 06:32:07;;;;;;;;;3.00;3.00;;;;;15.52;70.44;-19624.81;4997897;28;46700;-84
2023/04/29 06:34:32;;;;;;;;;2.33;2.33;;;;;15.63;70.59;-19627.63;4997464;28;45512;-85
2023/04/29 06:36:57;;;;;;;;;3.33;2.67;;;;;15.25;70.23;-19617.72;4998042;28;45475;-85
2023/04/29 06:39:26;;;;;;;;;3.33;3.00;;;;;15.53;70.11;-19624.97;4997982;28;45412;-84
2023/04/29 06:41:51;;;;;;;;;4.67;3.33;;;;;15.78;70.66;-19631.53;4996515;28;46640;-84
2023/04/29 06:44:18;;;;;;;;;3.00;3.00;;;;;15.79;70.37;-19631.81;4997041;28;45356;-84
2023/04/29 06:46:44;;;;;;;;;4.33;3.00;;;;;15.78;70.66;-19631.66;4997472;28;45586;-84
2023/04/29 06:56:32;;;;;;;;;6.33;3.67;;;;;14.67;70.75;-19602.56;4917238;28;45493;-85
2023/04/29 07:02:10;;;;;;;;;6.33;5.00;;;;;15.09;70.91;-19613.44;4901433;28;45531;-85
2023/04/29 07:04:36;;;;;;;;;4.67;4.00;;;;;14.84;71.06;-19606.84;4916939;28;46995;-85
2023/04/29 07:07:01;;;;;;;;;5.00;5.00;;;;;15.65;70.87;-19628.19;4917144;28;45560;-85
2023/04/29 07:09:27;;;;;;;;;6.33;4.67;;;;;14.74;70.88;-19604.44;4917297;28;45478;-85
2023/04/29 07:11:53;;;;;;;;;5.00;5.00;;;;;15.44;70.85;-19622.69;4916580;28;45685;-84
2023/04/29 07:14:21;;;;;;;;;7.00;5.00;;;;;15.48;71.04;-19623.75;4900385;28;46590;-84
2023/04/29 07:16:46;;;;;;;;;10.67;7.33;;;;;15.60;71.06;-19626.97;4917034;28;45602;-85
2023/04/29 07:19:11;;;;;;;;;7.33;7.33;;;;;15.56;71.13;-19625.91;4916989;28;45498;-85
2023/04/29 07:21:37;;;;;;;;;7.00;6.67;;;;;15.53;70.82;-19624.97;4917314;28;45387;-84
2023/04/29 07:24:03;;;;;;;;;6.00;6.00;;;;;15.56;70.99;-19625.91;4916230;28;47109;-85
2023/04/29 07:26:29;;;;;;;;;8.33;4.67;;;;;15.56;70.57;-19625.75;4916813;28;45568;-84
2023/04/29 07:28:54;;;;;;;;;7.33;6.33;;;;;15.30;71.15;-19619.06;4957351;28;45808;-85
2023/04/29 07:31:20;;;;;;;;;8.67;5.00;;;;;15.92;70.50;-19635.16;4996849;28;45575;-85
2023/04/29 07:33:46;;;;;;;;;6.67;6.67;;;;;15.94;70.71;-19635.69;4994138;28;46812;-84
2023/04/29 07:42:43;;;;;;;;;8.67;8.33;;;;;15.34;70.46;-19620.13;4954231;28;45632;-84
2023/04/29 07:45:10;;;;;;;;;9.33;7.67;;;;;15.98;70.49;-19636.75;4954596;28;56899;-85
2023/04/29 07:47:38;;;;;;;;;10.00;7.33;;;;;15.97;70.67;-19636.63;4953894;28;45437;-85
2023/04/29 07:50:04;;;;;;;;;9.00;8.00;;;;;15.37;70.76;-19620.94;4968330;28;45618;-85
2023/04/29 07:52:33;;;;;;;;;12.00;10.33;;;;;15.39;70.67;-19621.34;4958590;28;45856;-85
2023/04/29 07:54:58;;;;;;;;;13.00;9.67;;;;;15.05;70.31;-19612.47;4953688;28;47032;-85
2023/04/29 07:57:23;;;;;;;;;8.00;7.67;;;;;14.99;70.45;-19610.88;4948513;28;45595;-85
2023/04/29 08:03:32;;;;;;;;;9.33;9.33;;;;;14.86;70.71;-19607.38;4850901;29;45809;-85
2023/04/29 08:06:07;;;;;;;;;9.00;8.33;;;;;15.18;70.49;-19615.97;4859498;29;45536;-85
2023/04/29 08:08:33;;;;;;;;;7.33;5.33;;;;;15.11;70.28;-19613.97;4859638;29;45892;-84
2023/04/29 08:11:00;;;;;;;;;12.00;10.33;;;;;14.84;70.06;-19606.84;4857913;29;45567;-85
2023/04/29 08:13:29;;;;;;;;;8.33;7.00;;;;;15.34;70.71;-19620.13;4854559;29;45682;-85
2023/04/29 08:15:54;;;;;;;;;12.67;9.00;;;;;15.14;70.10;-19614.75;4842851;29;46338;-85
2023/04/29 08:18:27;;;;;;;;;10.00;9.33;;;;;14.86;70.28;-19607.38;4843227;29;45746;-84
2023/04/29 08:21:00;;;;;;;;;15.33;12.33;;;;;15.66;70.50;-19628.44;4897050;29;45495;-85
2023/04/29 08:23:33;;;;;;;;;13.67;10.67;;;;;14.61;70.32;-19600.94;4897469;29;45728;-85
2023/04/29 08:25:58;;;;;;;;;10.67;9.67;;;;;16.14;70.35;-19641.06;4895897;29;47164;-85
2023/04/29 08:28:24;;;;;;;;;8.33;8.33;;;;;15.30;70.36;-19619.06;4892661;29;45405;-84
2023/04/29 08:30:57;;;;;;;;;9.33;9.33;;;;;15.96;70.22;-19636.22;4896867;29;45424;-84
2023/04/29 08:33:22;;;;;;;;;11.00;10.67;;;;;15.78;70.25;-19631.66;4906532;28;45530;-85
2023/04/29 08:35:48;;;;;;;;;17.67;15.33;;;;;15.85;70.27;-19633.28;4993339;28;46317;-85
2023/04/29 08:38:14;;;;;;;;;11.33;9.00;;;;;15.41;70.52;-19622.00;4995879;28;45492;-85
2023/04/29 08:40:47;;;;;;;;;9.67;9.33;;;;;15.92;69.82;-19635.16;4994000;28;45484;-85
2023/04/29 08:43:14;;;;;;;;;17.00;13.67;;;;;16.23;69.86;-19643.34;4973864;28;45556;-85
2023/04/29 08:45:41;;;;;;;;;13.33;10.33;;;;;15.20;69.96;-19616.38;4986878;28;45552;-85
2023/04/29 08:48:06;;;;;;;;;8.67;8.67;;;;;15.29;69.71;-19618.66;4994248;28;45547;-85
2023/04/29 08:50:38;;;;;;;;;12.67;8.33;;;;;15.05;69.77;-19612.34;4991656;28;45559;-85
2023/04/29 08:53:05;;;;;;;;;9.67;9.33;;;;;15.46;69.76;-19623.09;4997287;28;45407;-84
2023/04/29 08:55:34;;;;;;;;;12.67;11.00;;;;;15.73;70.03;-19630.19;4992562;28;46708;-84
2023/04/29 08:58:01;;;;;;;;;16.33;12.67;;;;;15.59;69.74;-19626.72;4999247;28;45439;-85
2023/04/29 09:00:27;;;;;;;;;20.00;11.00;;;;;15.47;70.08;-19623.47;4996314;28;45484;-84
2023/04/29 09:02:55;;;;;;;;;11.00;10.67;;;;;15.65;70.11;-19628.03;5000508;28;46216;-84
2023/04/29 09:05:21;;;;;;;;;12.67;9.67;;;;;16.16;69.94;-19641.47;4999148;28;45535;-85
2023/04/29 09:07:47;;;;;;;;;15.00;11.67;;;;;15.60;69.68;-19626.84;4981189;28;45558;-85
2023/04/29 09:10:14;;;;;;;;;9.00;9.00;;;;;15.19;69.92;-19616.25;4999234;28;45449;-85
2023/04/29 09:12:40;;;;;;;;;15.00;10.67;;;;;15.99;70.25;-19637.16;4981790;28;45572;-84
2023/04/29 09:15:06;;;;;;;;;10.67;10.67;;;;;16.51;69.65;-19650.69;4999406;28;45886;-85
2023/04/29 09:17:41;;;;;;;;;15.00;11.00;;;;;16.53;69.78;-19651.09;4999110;28;45470;-84
2023/04/29 09:20:19;;;;;;;;;14.33;11.00;;;;;16.53;69.82;-19651.25;4997407;28;45399;-84
2023/04/29 09:22:52;;;;;;;;;19.67;19.67;;;;;16.55;69.78;-19651.78;4999616;28;45806;-85
2023/04/29 09:25:18;;;;;;;;;25.67;22.33;;;;;16.56;69.89;-19651.91;4997674;28;45475;-84
2023/04/29 09:27:46;;;;;;;;;21.67;20.00;;;;;16.58;69.85;-19652.44;4997571;28;45520;-85
2023/04/29 09:30:12;;;;;;;;;15.33;13.67;;;;;16.58;69.61;-19652.44;4983909;28;45533;-85
2023/04/29 09:32:38;;;;;;;;;12.67;12.00;;;;;16.26;69.94;-19644.13;4998596;28;45567;-85
2023/04/29 09:35:24;;;;;;;;;16.67;15.67;;;;;16.60;69.50;-19653.13;5003804;28;46620;-84
2023/04/29 09:37:50;;;;;;;;;14.33;11.67;;;;;15.95;69.77;-19636.09;4998571;28;45505;-85
2023/04/29 09:40:30;;;;;;;;;15.67;12.67;;;;;15.57;69.15;-19626.03;4997465;28;45517;-85
2023/04/29 09:43:04;;;;;;;;;16.67;16.67;;;;;16.68;69.62;-19655.13;4979311;28;45393;-85
2023/04/29 09:45:34;;;;;;;;;22.67;22.67;;;;;16.70;69.23;-19655.66;4979444;28;46341;-86
2023/04/29 09:48:08;;;;;;;;;14.00;14.00;;;;;16.16;69.56;-19641.59;4980312;28;45504;-86
2023/04/29 09:50:38;;;;;;;;;13.00;10.33;;;;;16.18;69.27;-19642.00;4999021;28;45612;-84
2023/04/29 09:53:08;;;;;;;;;15.67;15.67;;;;;16.39;69.41;-19647.50;5002628;28;45513;-84
2023/04/29 09:55:58;;;;;;;;;15.67;14.00;;;;;16.78;69.07;-19657.78;4996996;28;46071;-85
2023/04/29 09:58:36;;;;;;;;;15.00;14.00;;;;;16.00;68.99;-19637.31;4997090;28;45531;-84
2023/04/29 10:01:03;;;;;;;;;16.00;14.00;;;;;16.65;69.10;-19654.31;4980412;28;45592;-85
2023/04/29 10:03:33;;;;;;;;;14.33;14.33;;;;;16.85;69.04;-19659.53;4982162;28;45602;-85
2023/04/29 10:05:59;;;;;;;;;13.67;11.00;;;;;16.86;69.14;-19659.94;4997616;28;46063;-85
2023/04/29 10:08:26;;;;;;;;;15.33;14.33;;;;;16.76;68.82;-19657.13;4998462;28;45406;-84
2023/04/29 10:10:56;;;;;;;;;10.33;9.00;;;;;16.11;68.89;-19640.25;4998713;28;45514;-85
2023/04/29 10:13:25;;;;;;;;;15.00;12.33;;;;;16.79;68.34;-19657.94;4998575;28;45536;-83
2023/04/29 10:16:14;;;;;;;;;19.33;18.33;;;;;16.95;68.51;-19662.22;4998281;28;46159;-82
2023/04/29 10:18:43;;;;;;;;;17.00;12.00;;;;;16.47;68.69;-19649.63;4997712;28;45463;-81
2023/04/29 10:21:12;;;;;;;;;16.33;13.33;;;;;17.05;68.54;-19664.91;4990466;28;45550;-82
2023/04/29 10:23:40;;;;;;;;;17.33;14.00;;;;;16.38;68.13;-19647.34;4998451;28;45467;-83
2023/04/29 10:26:11;;;;;;;;;11.33;11.33;;;;;16.53;68.70;-19651.09;4997421;28;47182;-83
2023/04/29 10:28:38;;;;;;;;;10.00;9.00;;;;;16.63;67.90;-19653.91;4997891;28;45530;-83
2023/04/29 10:31:06;;;;;;;;;9.00;9.00;;;;;16.71;68.46;-19655.78;4997180;28;47732;-82
2023/04/29 10:33:34;;;;;;;;;8.00;7.33;;;;;17.28;67.97;-19670.94;4998415;28;45780;-82
2023/04/29 10:36:01;;;;;;;;;15.33;11.33;;;;;16.79;67.84;-19657.94;4989680;28;46204;-82
2023/04/29 10:38:42;;;;;;;;;9.67;9.67;;;;;17.27;67.31;-19670.66;4997806;28;45452;-83
2023/04/29 10:41:18;;;;;;;;;9.00;7.67;;;;;17.41;67.80;-19674.28;4997524;28;45356;-82
2023/04/29 10:43:45;;;;;;;;;13.67;10.33;;;;;17.41;67.45;-19674.28;4997252;28;45868;-82
2023/04/29 10:46:19;;;;;;;;;11.00;8.67;;;;;17.31;67.62;-19671.59;4996030;28;45634;-82
2023/04/29 10:48:45;;;;;;;;;8.33;8.33;;;;;17.55;67.19;-19677.75;4997482;28;45344;-82
2023/04/29 10:51:11;;;;;;;;;9.00;7.00;;;;;17.54;66.82;-19677.63;4996973;28;45542;-82
2023/04/29 10:53:59;;;;;;;;;13.67;10.00;;;;;17.62;66.99;-19679.75;4998247;28;45574;-82
2023/04/29 10:56:39;;;;;;;;;8.67;7.67;;;;;17.70;66.46;-19681.75;4995008;28;46108;-82
2023/04/29 10:59:08;;;;;;;;;7.67;6.00;;;;;17.41;66.36;-19674.13;5000301;28;45713;-82
2023/04/29 11:01:45;;;;;;;;;9.67;8.33;;;;;17.12;66.41;-19666.50;4996241;28;45440;-82
2023/04/29 11:04:11;;;;;;;;;6.67;6.67;;;;;17.36;65.88;-19672.94;4999135;28;45544;-82
2023/04/29 11:06:40;;;;;;;;;7.00;6.33;;;;;17.26;66.14;-19670.25;4998260;28;46866;-82
2023/04/29 11:09:24;;;;;;;;;9.33;7.33;;;;;17.52;65.96;-19677.06;4982294;28;45880;-82
2023/04/29 11:12:04;;;;;;;;;9.67;8.67;;;;;17.60;65.76;-19679.09;4999135;28;45572;-81
2023/04/29 11:14:48;;;;;;;;;48.00;38.00;;;;;17.89;65.48;-19686.72;4996752;28;45420;-82
2023/04/29 11:17:15;;;;;;;;;26.67;25.67;;;;;18.01;64.76;-19689.78;4996858;28;47243;-82
2023/04/29 11:19:50;;;;;;;;;9.67;8.67;;;;;17.78;65.04;-19683.91;4997238;28;45906;-82
2023/04/29 11:22:18;;;;;;;;;8.00;8.00;;;;;18.35;65.22;-19698.88;4997624;28;45481;-81
2023/04/29 11:24:59;;;;;;;;;9.00;8.33;;;;;18.15;64.90;-19693.53;4995751;28;45574;-82
2023/04/29 11:27:28;;;;;;;;;11.67;9.33;;;;;18.45;64.08;-19701.41;4996895;28;47039;-82
2023/04/29 11:29:57;;;;;;;;;8.33;6.33;;;;;18.46;64.39;-19701.69;4997253;28;45425;-82
2023/04/29 11:32:27;;;;;;;;;6.00;6.00;;;;;18.46;64.80;-19701.69;4996489;28;45496;-82
2023/04/29 11:34:52;;;;;;;;;9.33;8.33;;;;;18.47;64.59;-19701.97;4997407;28;45511;-82
2023/04/29 11:37:22;;;;;;;;;5.67;5.67;;;;;18.48;64.33;-19702.09;4994983;28;48050;-83
2023/04/29 11:39:49;;;;;;;;;6.67;5.67;;;;;18.47;64.55;-19701.97;5003789;28;45493;-82
2023/04/29 11:42:19;;;;;;;;;9.00;7.67;;;;;18.32;64.46;-19698.06;4997214;28;45475;-82
2023/04/29 11:44:45;;;;;;;;;6.67;6.67;;;;;18.28;64.77;-19696.88;4997250;28;45523;-82
2023/04/29 11:47:11;;;;;;;;;9.67;7.67;;;;;18.45;64.56;-19701.28;4995343;28;47078;-82
2023/04/29 11:49:37;;;;;;;;;5.00;5.00;;;;;18.27;64.33;-19696.75;4996889;28;45471;-82
2023/04/29 11:52:02;;;;;;;;;8.00;5.67;;;;;18.53;64.39;-19703.56;4997138;28;45488;-82
2023/04/29 11:54:31;;;;;;;;;6.00;5.00;;;;;18.56;63.92;-19704.22;4996825;28;45811;-82
2023/04/29 11:56:57;;;;;;;;;17.00;13.33;;;;;18.50;63.51;-19702.63;4995426;28;46417;-82
2023/04/29 11:59:23;;;;;;;;;9.00;9.00;;;;;18.43;63.77;-19700.75;4992657;28;45432;-82
2023/04/29 12:01:51;;;;;;;;;9.33;7.33;;;;;18.53;64.02;-19703.41;4996557;28;47123;-82
2023/04/29 12:04:18;;;;;;;;;9.67;9.00;;;;;18.60;63.98;-19705.28;4979847;28;45421;-82
2023/04/29 12:06:44;;;;;;;;;8.67;6.33;;;;;18.29;63.71;-19697.16;4995423;28;45794;-82
2023/04/29 12:09:09;;;;;;;;;5.33;5.33;;;;;18.61;63.83;-19705.56;4996616;28;45584;-82
2023/04/29 12:11:36;;;;;;;;;8.33;8.33;;;;;18.62;64.02;-19705.69;4997069;28;45452;-83
2023/04/29 12:14:04;;;;;;;;;7.00;7.00;;;;;18.61;63.53;-19705.44;4997300;28;45492;-83
2023/04/29 12:16:31;;;;;;;;;6.00;6.00;;;;;18.62;63.83;-19705.69;4993952;28;47133;-83
2023/04/29 12:18:57;;;;;;;;;7.00;7.00;;;;;18.37;64.00;-19699.16;4996554;28;45533;-83
2023/04/29 12:21:23;;;;;;;;;7.00;7.00;;;;;18.29;63.79;-19697.28;4992012;28;45474;-83
2023/04/29 12:23:50;;;;;;;;;6.00;6.00;;;;;18.63;63.30;-19705.97;4994306;28;45515;-83
2023/04/29 12:26:16;;;;;;;;;7.00;5.67;;;;;18.55;63.14;-19703.97;4995638;28;45424;-82
2023/04/29 12:28:42;;;;;;;;;5.00;5.00;;;;;18.61;62.97;-19705.56;4996643;28;45479;-82
2023/04/29 12:31:10;;;;;;;;;5.00;5.00;;;;;18.53;63.10;-19703.56;4996577;28;45505;-82
2023/04/29 12:33:36;;;;;;;;;9.67;9.33;;;;;18.38;62.88;-19699.41;4996963;28;45366;-82
2023/04/29 12:36:02;;;;;;;;;5.67;5.67;;;;;18.62;63.43;-19705.81;4996461;28;46640;-82
2023/04/29 12:38:30;;;;;;;;;9.33;7.00;;;;;18.71;63.14;-19708.22;4996166;28;45361;-82
2023/04/29 12:40:59;;;;;;;;;7.67;7.00;;;;;18.35;62.84;-19698.75;4996640;28;45947;-82
2023/04/29 12:43:28;;;;;;;;;9.67;9.67;;;;;18.64;63.01;-19706.38;4996712;28;45396;-82
2023/04/29 12:46:01;;;;;;;;;7.33;7.33;;;;;18.56;62.76;-19704.34;4996284;28;46451;-82
2023/04/29 12:48:31;;;;;;;;;8.00;6.67;;;;;18.62;62.71;-19705.69;4995901;28;45390;-82
2023/04/29 12:50:58;;;;;;;;;10.33;8.33;;;;;18.53;62.69;-19703.41;4996022;28;45435;-82
2023/04/29 12:53:25;;;;;;;;;8.67;8.67;;;;;18.60;62.79;-19705.16;4996498;28;45475;-82
2023/04/29 12:55:51;;;;;;;;;8.67;8.67;;;;;18.82;62.43;-19710.91;4980234;28;46301;-82
2023/04/29 12:58:16;;;;;;;;;9.33;6.33;;;;;18.98;62.70;-19715.31;4975952;28;45941;-83
2023/04/29 13:00:42;;;;;;;;;8.33;6.00;;;;;18.77;62.58;-19709.84;4976637;28;45369;-82
2023/04/29 13:03:07;;;;;;;;;5.00;5.00;;;;;18.95;62.26;-19714.38;4977098;28;45652;-82
2023/04/29 13:05:33;;;;;;;;;8.33;7.00;;;;;19.37;62.47;-19725.34;4976126;28;46102;-82
2023/04/29 13:07:58;;;;;;;;;6.33;5.00;;;;;19.44;61.83;-19727.06;4976289;28;45373;-82
2023/04/29 13:10:23;;;;;;;;;5.00;5.00;;;;;19.56;61.64;-19730.28;4976474;28;45420;-82
2023/04/29 13:12:49;;;;;;;;;10.67;7.00;;;;;19.30;61.77;-19723.59;4976843;28;45297;-83
2023/04/29 13:15:14;;;;;;;;;6.00;6.00;;;;;19.72;61.74;-19734.41;4976202;28;47112;-82
2023/04/29 13:17:40;;;;;;;;;5.33;5.33;;;;;19.93;61.57;-19739.88;4976230;28;45499;-82
2023/04/29 13:20:06;;;;;;;;;5.33;5.00;;;;;20.00;61.29;-19741.88;4975946;28;45470;-82
2023/04/29 13:22:32;;;;;;;;;6.33;5.67;;;;;19.97;60.77;-19740.94;4976504;28;45454;-82
2023/04/29 13:24:57;;;;;;;;;9.67;7.00;;;;;20.05;60.54;-19742.94;4976046;28;46698;-82
2023/04/29 13:27:23;;;;;;;;;5.25;2.75;;;;;20.05;61.17;-19743.06;4975961;28;45350;-82
2023/04/29 13:29:49;;;;;;;;;7.33;5.00;;;;;20.13;60.62;-19745.06;4978447;28;45477;-82
2023/04/29 13:32:15;;;;;;;;;7.00;5.67;;;;;19.80;60.39;-19736.69;4979494;28;45414;-82
2023/04/29 13:34:42;;;;;;;;;7.00;5.67;;;;;19.92;60.66;-19739.75;4978875;28;47413;-82
2023/04/29 13:37:10;;;;;;;;;6.00;5.25;;;;;19.74;60.25;-19735.06;4979140;28;45492;-82
2023/04/29 13:39:36;;;;;;;;;4.25;4.25;;;;;19.92;60.61;-19739.75;4979171;28;45489;-82
2023/04/29 13:42:02;;;;;;;;;6.00;4.00;;;;;19.75;60.33;-19735.34;4979483;28;45431;-82
2023/04/29 13:44:28;;;;;;;;;6.00;5.67;;;;;19.44;60.40;-19727.19;4978989;28;45547;-82
2023/04/29 13:46:53;;;;;;;;;6.75;5.00;;;;;19.90;60.19;-19739.22;4978904;28;45939;-82
2023/04/29 13:49:19;;;;;;;;;6.00;6.00;;;;;19.91;60.12;-19739.34;4978643;28;45788;-82
2023/04/29 13:51:44;;;;;;;;;4.25;4.25;;;;;19.92;60.46;-19739.59;4979394;28;45463;-82
2023/04/29 13:54:09;;;;;;;;;4.25;4.25;;;;;19.58;60.45;-19730.94;4980661;28;47448;-82
2023/04/29 13:56:38;;;;;;;;;6.00;6.00;;;;;19.77;60.10;-19735.88;4998461;28;45436;-82
2023/04/29 13:59:03;;;;;;;;;5.00;4.00;;;;;19.97;59.89;-19740.94;4980765;28;45444;-82
2023/04/29 14:01:29;;;;;;;;;6.00;6.00;;;;;19.84;59.58;-19737.59;4998634;28;45443;-82
2023/04/29 14:03:54;;;;;;;;;5.33;5.33;;;;;19.71;59.50;-19732.31;4997769;28;46490;-82
2023/04/29 14:06:20;;;;;;;;;4.33;4.33;;;;;19.81;59.68;-19734.97;4998048;28;45866;-82
2023/04/29 14:08:46;;;;;;;;;7.67;6.33;;;;;19.94;59.07;-19738.31;4998479;28;45485;-82
2023/04/29 14:11:11;;;;;;;;;5.00;4.00;;;;;19.45;58.91;-19389.91;4998535;28;45416;-82
2023/04/29 14:13:36;;;;;;;;;6.00;6.00;;;;;19.66;58.85;-19395.13;4998100;28;45425;-82
2023/04/29 14:16:04;;;;;;;;;4.00;4.00;;;;;19.93;58.98;-19402.19;4980383;28;45467;-82
2023/04/29 14:18:29;;;;;;;;;6.00;5.00;;;;;19.94;58.91;-19402.47;4997851;28;45517;-82
2023/04/29 14:20:56;;;;;;;;;6.67;6.00;;;;;19.89;58.95;-19401.16;4998430;28;45289;-82
2023/04/29 14:23:21;;;;;;;;;6.00;4.33;;;;;19.93;59.29;-19402.19;4997958;28;46240;-81
2023/04/29 14:25:47;;;;;;;;;5.67;4.67;;;;;19.74;58.67;-19397.38;4997963;28;45820;-82
2023/04/29 14:28:12;;;;;;;;;4.67;4.67;;;;;19.89;58.95;-19065.16;4998074;28;45416;-82
2023/04/29 14:30:37;;;;;;;;;5.50;4.00;;;;;19.59;58.90;-19057.88;4998257;28;45448;-82
2023/04/29 14:33:03;;;;;;;;;4.50;3.50;;;;;19.86;58.70;-19064.41;4996196;28;46717;-82
2023/04/29 14:35:29;;;;;;;;;5.00;5.00;;;;;19.86;58.64;-19064.41;4997865;28;45484;-82
2023/04/29 14:37:54;;;;;;;;;6.00;5.00;;;;;19.57;58.47;-19057.22;4998036;28;45410;-82
2023/04/29 14:40:20;;;;;;;;;4.25;4.25;;;;;19.64;58.97;-19059.03;4997168;28;45742;-82
2023/04/29 14:42:45;;;;;;;;;4.25;4.25;;;;;19.65;58.98;-19059.28;4997894;28;45459;-83
2023/04/29 14:45:13;;;;;;;;;4.25;4.25;;;;;19.98;58.66;-19067.47;4997793;28;45434;-82
2023/04/29 14:47:39;;;;;;;;;4.00;4.00;;;;;20.03;58.61;-19068.88;4997346;28;45429;-83
2023/04/29 14:50:06;;;;;;;;;5.00;4.00;;;;;19.91;58.27;-19065.81;4997831;28;45481;-82
2023/04/29 14:52:31;;;;;;;;;4.00;4.00;;;;;19.87;57.84;-18728.78;4997644;28;46391;-82
2023/04/29 14:54:56;;;;;;;;;7.33;6.00;;;;;19.74;58.26;-18725.78;4979738;28;45419;-82
2023/04/29 14:57:22;;;;;;;;;4.50;4.50;;;;;19.88;57.75;-18729.16;4997770;28;45290;-82
2023/04/29 14:59:48;;;;;;;;;3.33;3.33;;;;;19.90;57.88;-18729.66;4997988;28;45608;-82
2023/04/29 15:02:13;;;;;;;;;4.00;4.00;;;;;19.92;57.57;-18394.09;4997142;28;46270;-82
2023/04/29 15:04:44;;;;;;;;;6.67;5.00;;;;;19.63;57.20;-18387.13;4979699;28;46457;-82
2023/04/29 15:07:09;;;;;;;;;4.67;3.33;;;;;19.91;57.73;-18393.88;4997379;28;45460;-82
2023/04/29 15:09:35;;;;;;;;;3.00;3.00;;;;;19.80;57.82;-18055.50;4997761;28;45432;-82
2023/04/29 15:12:00;;;;;;;;;6.00;4.00;;;;;19.33;57.70;-18044.50;4997252;28;45600;-82
2023/04/29 15:14:26;;;;;;;;;2.67;2.67;;;;;19.24;57.64;-18042.34;4978272;28;45543;-82
2023/04/29 15:16:51;;;;;;;;;5.33;4.33;;;;;19.01;57.33;-17701.31;4997204;28;45318;-82
2023/04/29 15:19:17;;;;;;;;;4.00;4.00;;;;;19.77;57.46;-17718.78;4997654;28;45333;-83
2023/04/29 15:21:42;;;;;;;;;1.75;1.25;;;;;19.54;57.04;-17377.81;4997090;28;46307;-82
2023/04/29 15:24:08;;;;;;;;;3.67;3.67;;;;;19.72;57.54;-17717.72;4996783;28;56125;-83
2023/04/29 15:26:33;;;;;;;;;3.33;3.33;;;;;19.48;57.54;-17712.22;4997234;28;45418;-82
2023/04/29 15:28:59;;;;;;;;;7.00;5.33;;;;;19.65;57.80;-17380.19;4979869;28;45806;-82
2023/04/29 15:31:25;;;;;;;;;5.00;4.67;;;;;19.72;57.27;-17381.69;4996544;28;46874;-82
2023/04/29 15:33:53;;;;;;;;;6.00;6.00;;;;;19.30;56.46;-16700.84;4997030;28;45472;-83
2023/04/29 15:36:19;;;;;;;;;7.00;7.00;;;;;19.49;56.52;-16369.00;4997125;28;45424;-82
2023/04/29 15:38:44;;;;;;;;;3.00;3.00;;;;;19.32;56.43;-16029.69;4997262;28;45516;-82
2023/04/29 15:41:09;;;;;;;;;5.00;4.00;;;;;19.47;57.03;-16368.69;4996800;28;47297;-83
2023/04/29 15:43:35;;;;;;;;;8.00;6.33;;;;;19.23;56.83;-16363.59;4996980;28;45762;-82
2023/04/29 15:46:00;;;;;;;;;6.33;3.00;;;;;19.33;57.13;-16365.72;4996647;28;45741;-82
2023/04/29 15:48:26;;;;;;;;;6.00;4.00;;;;;19.46;56.99;-16032.59;4997110;28;45389;-83
2023/04/29 15:50:52;;;;;;;;;4.00;4.00;;;;;19.32;56.76;-16029.78;4996670;28;46315;-83
2023/04/29 15:53:17;;;;;;;;;5.67;5.00;;;;;19.32;56.99;-16029.69;4978758;28;45500;-82
2023/04/29 15:55:43;;;;;;;;;5.00;4.67;;;;;19.26;57.11;-15692.72;4996607;28;45370;-82
2023/04/29 15:58:08;;;;;;;;;8.33;8.33;;;;;19.28;56.67;-15693.03;4997067;28;45408;-83
2023/04/29 16:00:33;;;;;;;;;5.00;5.00;;;;;18.81;56.92;-15348.16;4996206;28;46612;-82